Time;durP1;ratioP1;P1;durP2;ratioP2;P2;SDS_P1;SDS_P2;PMS_P1;PMS_P2;Temp;Humidity;BMP_temperature;BMP_pressure;BME280_temperature;BME280_humidity;BME280_pressure;Samples;Min_cycle;Max_cycle;Signal;HPM_P1;HPM_P2
2022/11/14 00:00:21;;;;;;;;;33.25;29.50;;;;;;;;5081458;27;45382;-71
2022/11/14 00:02:46;;;;;;;;;33.25;29.50;;;;;;;;5079475;27;45389;-73
2022/11/14 00:05:11;;;;;;;;;37.00;32.00;;;;;;;;5081152;27;45492;-73
2022/11/14 00:07:36;;;;;;;;;33.25;31.00;;;;;;;;5078991;27;46174;-73
2022/11/14 00:10:02;;;;;;;;;38.75;33.75;;;;;;;;5081235;27;45385;-73
2022/11/14 00:12:27;;;;;;;;;41.75;37.00;;;;;;;;5079034;27;45406;-73
2022/11/14 00:14:54;;;;;;;;;41.75;36.00;;;;;;;;5081139;27;45454;-73
2022/11/14 00:17:19;;;;;;;;;41.00;34.25;;;;;;;;5081621;27;45295;-73
2022/11/14 00:19:45;;;;;;;;;39.50;35.50;;;;;;;;5081403;27;45407;-71
2022/11/14 00:22:10;;;;;;;;;40.75;33.25;;;;;;;;5083283;27;45211;-73
2022/11/14 00:24:35;;;;;;;;;37.25;31.50;;;;;;;;5080704;27;45303;-71
2022/11/14 00:27:00;;;;;;;;;32.00;28.25;;;;;;;;5082155;27;46191;-70
2022/11/14 00:29:25;;;;;;;;;37.50;30.75;;;;;;;;5080913;27;45220;-72
2022/11/14 00:31:51;;;;;;;;;51.00;40.00;;;;;;;;5077791;27;45268;-71
2022/11/14 00:34:16;;;;;;;;;36.75;34.00;;;;;;;;5091865;27;45795;-71
2022/11/14 00:36:41;;;;;;;;;40.00;34.25;;;;;;;;5084217;27;46283;-71
2022/11/14 00:39:08;;;;;;;;;43.00;31.00;;;;;;;;5078208;27;45148;-72
2022/11/14 00:41:33;;;;;;;;;46.75;37.75;;;;;;;;5083095;27;45287;-71
2022/11/14 00:43:59;;;;;;;;;38.25;33.25;;;;;;;;5078182;27;45357;-71
2022/11/14 00:46:24;;;;;;;;;36.50;34.50;;;;;;;;5083153;27;46339;-71
2022/11/14 00:48:49;;;;;;;;;41.00;35.50;;;;;;;;5078637;28;45262;-71
2022/11/14 00:51:14;;;;;;;;;38.25;34.50;;;;;;;;5087478;27;45491;-72
2022/11/14 00:53:39;;;;;;;;;44.50;37.75;;;;;;;;5078455;27;45441;-72
2022/11/14 00:56:05;;;;;;;;;42.75;33.00;;;;;;;;5088860;27;45252;-72
2022/11/14 00:58:30;;;;;;;;;44.75;34.25;;;;;;;;5083589;27;45323;-72
2022/11/14 01:00:55;;;;;;;;;46.25;34.25;;;;;;;;5081040;27;45485;-72
2022/11/14 01:03:21;;;;;;;;;49.75;38.25;;;;;;;;5078121;27;45453;-72
2022/11/14 01:05:48;;;;;;;;;42.50;34.50;;;;;;;;5080525;27;45210;-72
2022/11/14 01:08:14;;;;;;;;;40.75;36.50;;;;;;;;5078081;28;45388;-72
2022/11/14 01:10:43;;;;;;;;;41.25;36.00;;;;;;;;5088209;27;45423;-72
2022/11/14 01:13:09;;;;;;;;;42.75;36.50;;;;;;;;5081162;27;45544;-72
2022/11/14 01:15:37;;;;;;;;;40.75;36.00;;;;;;;;5082873;27;48181;-72
2022/11/14 01:18:02;;;;;;;;;45.50;37.25;;;;;;;;5081756;27;45460;-72
2022/11/14 01:20:27;;;;;;;;;43.50;34.25;;;;;;;;5082395;27;45539;-71
2022/11/14 01:22:53;;;;;;;;;39.50;32.00;;;;;;;;5096772;27;45499;-71
2022/11/14 01:25:18;;;;;;;;;40.75;36.75;;;;;;;;5094814;27;46174;-72
2022/11/14 01:27:43;;;;;;;;;39.25;35.00;;;;;;;;5083992;27;45409;-71
2022/11/14 01:30:08;;;;;;;;;44.50;35.75;;;;;;;;5084928;27;45411;-71
2022/11/14 01:32:34;;;;;;;;;38.75;34.50;;;;;;;;5081202;27;45343;-73
2022/11/14 01:34:59;;;;;;;;;42.75;31.00;;;;;;;;5082558;27;46352;-73
2022/11/14 01:37:24;;;;;;;;;42.25;35.00;;;;;;;;5086339;27;44727;-73
2022/11/14 01:39:49;;;;;;;;;43.50;36.75;;;;;;;;5096164;27;45172;-72
2022/11/14 01:42:14;;;;;;;;;38.50;33.75;;;;;;;;5082679;27;45574;-72
2022/11/14 01:44:51;;;;;;;;;38.75;34.25;;;;;;;;5083436;27;45353;-73
2022/11/14 01:47:19;;;;;;;;;33.00;26.75;;;;;;;;5086416;27;45329;-71
2022/11/14 01:49:52;;;;;;;;;36.75;29.50;;;;;;;;5083053;27;45386;-73
2022/11/14 01:52:21;;;;;;;;;35.50;32.50;;;;;;;;5095419;27;45519;-71
2022/11/14 01:54:51;;;;;;;;;36.75;31.50;;;;;;;;5097069;27;45372;-72
2022/11/14 01:57:19;;;;;;;;;38.75;32.75;;;;;;;;5083275;27;45361;-71
2022/11/14 01:59:47;;;;;;;;;30.75;30.25;;;;;;;;5084880;27;45357;-72
2022/11/14 02:02:15;;;;;;;;;32.00;29.75;;;;;;;;5087679;27;46897;-73
2022/11/14 02:04:42;;;;;;;;;34.75;31.50;;;;;;;;5086539;27;48223;-72
2022/11/14 02:07:08;;;;;;;;;42.75;35.75;;;;;;;;5083720;27;45593;-72
2022/11/14 02:09:35;;;;;;;;;39.00;30.50;;;;;;;;5097973;27;45246;-72
2022/11/14 02:12:02;;;;;;;;;44.75;34.50;;;;;;;;5080643;27;45459;-72
2022/11/14 02:14:28;;;;;;;;;51.50;38.00;;;;;;;;5080870;27;45362;-72
2022/11/14 02:16:53;;;;;;;;;49.00;36.75;;;;;;;;5085243;27;45306;-72
2022/11/14 02:19:18;;;;;;;;;48.75;37.00;;;;;;;;5079640;27;45319;-72
2022/11/14 02:21:43;;;;;;;;;46.00;36.25;;;;;;;;5080443;27;45413;-72
2022/11/14 02:24:09;;;;;;;;;43.50;35.75;;;;;;;;5079475;27;45376;-72
2022/11/14 02:26:35;;;;;;;;;52.75;38.50;;;;;;;;5081960;27;45453;-72
2022/11/14 02:29:00;;;;;;;;;51.75;40.00;;;;;;;;5080649;27;45166;-72
2022/11/14 02:31:25;;;;;;;;;52.75;41.75;;;;;;;;5082885;27;45237;-72
2022/11/14 02:33:50;;;;;;;;;48.25;38.00;;;;;;;;5082799;27;46289;-72
2022/11/14 02:36:16;;;;;;;;;48.50;40.00;;;;;;;;5089206;27;45368;-72
2022/11/14 02:38:41;;;;;;;;;53.00;39.00;;;;;;;;5079288;27;45185;-72
2022/11/14 02:41:06;;;;;;;;;53.25;40.25;;;;;;;;5081763;27;45308;-72
2022/11/14 02:43:31;;;;;;;;;45.75;37.25;;;;;;;;5080264;27;46285;-72
2022/11/14 02:45:56;;;;;;;;;48.75;36.50;;;;;;;;5082654;27;45226;-72
2022/11/14 02:48:21;;;;;;;;;46.50;38.50;;;;;;;;5080379;27;45174;-72
2022/11/14 02:50:47;;;;;;;;;43.50;37.00;;;;;;;;5082480;27;45385;-72
2022/11/14 02:53:12;;;;;;;;;46.25;37.00;;;;;;;;5080131;27;45255;-72
2022/11/14 02:55:39;;;;;;;;;49.50;38.50;;;;;;;;5082145;27;45263;-72
2022/11/14 02:58:04;;;;;;;;;49.00;40.25;;;;;;;;5085374;27;45288;-72
2022/11/14 03:00:29;;;;;;;;;45.25;37.00;;;;;;;;5085714;27;45421;-72
2022/11/14 03:02:54;;;;;;;;;43.00;36.50;;;;;;;;5080272;27;46069;-72
2022/11/14 03:05:20;;;;;;;;;41.50;37.25;;;;;;;;5083189;27;45647;-72
2022/11/14 03:07:45;;;;;;;;;51.00;36.25;;;;;;;;5083820;27;45356;-72
2022/11/14 03:10:10;;;;;;;;;38.75;34.50;;;;;;;;5082152;27;45446;-71
2022/11/14 03:12:36;;;;;;;;;42.00;31.75;;;;;;;;5079883;27;46030;-71
2022/11/14 03:15:02;;;;;;;;;37.50;34.25;;;;;;;;5082232;27;45517;-71
2022/11/14 03:17:29;;;;;;;;;36.25;30.75;;;;;;;;5079895;27;45316;-71
2022/11/14 03:19:54;;;;;;;;;36.75;33.50;;;;;;;;5082254;27;45230;-71
2022/11/14 03:22:20;;;;;;;;;44.50;36.50;;;;;;;;5083497;27;45108;-71
2022/11/14 03:24:45;;;;;;;;;43.00;35.75;;;;;;;;5079396;27;45340;-71
2022/11/14 03:27:10;;;;;;;;;39.00;35.00;;;;;;;;5085720;27;45385;-71
2022/11/14 03:29:36;;;;;;;;;42.75;32.25;;;;;;;;5079568;27;45225;-71
2022/11/14 03:32:01;;;;;;;;;44.00;35.50;;;;;;;;5079630;28;45734;-71
2022/11/14 03:34:26;;;;;;;;;36.25;30.00;;;;;;;;5083055;27;45512;-71
2022/11/14 03:36:51;;;;;;;;;42.75;31.25;;;;;;;;5087128;27;45249;-71
2022/11/14 03:39:16;;;;;;;;;31.50;23.50;;;;;;;;5079443;27;45239;-72
2022/11/14 03:41:42;;;;;;;;;34.25;31.25;;;;;;;;5088465;27;46032;-72
2022/11/14 03:44:07;;;;;;;;;36.75;30.50;;;;;;;;5079727;27;45486;-72
2022/11/14 03:46:32;;;;;;;;;34.75;30.25;;;;;;;;5090052;27;44637;-71
2022/11/14 03:48:57;;;;;;;;;37.00;29.00;;;;;;;;5079541;27;45157;-72
2022/11/14 03:51:22;;;;;;;;;36.25;30.50;;;;;;;;5080770;27;46114;-72
2022/11/14 03:53:48;;;;;;;;;36.00;28.50;;;;;;;;5078967;28;45172;-71
2022/11/14 03:56:13;;;;;;;;;36.00;30.00;;;;;;;;5082273;27;45448;-71
2022/11/14 03:58:38;;;;;;;;;32.75;31.25;;;;;;;;5080972;27;45393;-71
2022/11/14 04:01:03;;;;;;;;;29.75;26.25;;;;;;;;5086129;27;46307;-71
2022/11/14 04:03:28;;;;;;;;;33.50;30.25;;;;;;;;5079168;27;44851;-71
2022/11/14 04:05:53;;;;;;;;;41.25;33.75;;;;;;;;5085576;27;45488;-72
2022/11/14 04:08:19;;;;;;;;;25.00;21.50;;;;;;;;5079099;27;45398;-72
2022/11/14 04:10:47;;;;;;;;;32.75;29.00;;;;;;;;5081187;27;45334;-72
2022/11/14 04:13:12;;;;;;;;;40.50;30.75;;;;;;;;5077654;28;45434;-72
2022/11/14 04:15:38;;;;;;;;;30.75;24.25;;;;;;;;5084170;27;45431;-72
2022/11/14 04:18:03;;;;;;;;;36.25;29.50;;;;;;;;5079458;27;46141;-72
2022/11/14 04:20:28;;;;;;;;;34.25;31.75;;;;;;;;5081301;27;45719;-72
2022/11/14 04:22:53;;;;;;;;;23.75;21.50;;;;;;;;5078647;27;45413;-72
2022/11/14 04:25:19;;;;;;;;;32.50;30.50;;;;;;;;5079901;27;45213;-72
2022/11/14 04:27:44;;;;;;;;;29.00;25.25;;;;;;;;5078679;27;45494;-72
2022/11/14 04:30:09;;;;;;;;;40.50;30.50;;;;;;;;5079053;27;46419;-72
2022/11/14 04:32:35;;;;;;;;;41.25;29.25;;;;;;;;5078765;28;45207;-72
2022/11/14 04:35:00;;;;;;;;;42.00;35.00;;;;;;;;5086746;27;45378;-72
2022/11/14 04:37:25;;;;;;;;;32.00;29.00;;;;;;;;5078933;27;45423;-72
2022/11/14 04:39:50;;;;;;;;;35.25;29.50;;;;;;;;5079559;27;45563;-72
2022/11/14 04:42:16;;;;;;;;;38.00;31.25;;;;;;;;5086842;27;45355;-72
2022/11/14 04:44:41;;;;;;;;;37.75;32.50;;;;;;;;5079203;27;45493;-72
2022/11/14 04:47:06;;;;;;;;;31.50;26.25;;;;;;;;5087597;27;45343;-72
2022/11/14 04:49:31;;;;;;;;;35.25;28.00;;;;;;;;5080794;27;45431;-71
2022/11/14 04:51:57;;;;;;;;;33.50;24.50;;;;;;;;5078145;27;45150;-72
2022/11/14 04:54:22;;;;;;;;;31.75;28.25;;;;;;;;5079656;27;45142;-72
2022/11/14 04:56:48;;;;;;;;;35.50;28.50;;;;;;;;5081643;27;45264;-72
2022/11/14 04:59:13;;;;;;;;;34.75;27.50;;;;;;;;5082268;27;45382;-71
2022/11/14 05:01:38;;;;;;;;;35.50;28.25;;;;;;;;5080708;27;45354;-72
2022/11/14 05:04:03;;;;;;;;;35.50;32.25;;;;;;;;5079780;27;45471;-71
2022/11/14 05:06:29;;;;;;;;;30.75;25.00;;;;;;;;5084356;27;45321;-71
2022/11/14 05:08:54;;;;;;;;;27.25;22.75;;;;;;;;5081782;27;45551;-71
2022/11/14 05:11:19;;;;;;;;;38.25;30.25;;;;;;;;5084094;27;45563;-71
2022/11/14 05:13:45;;;;;;;;;37.25;31.00;;;;;;;;5082043;27;45533;-71
2022/11/14 05:16:10;;;;;;;;;26.75;25.75;;;;;;;;5083861;27;45440;-71
2022/11/14 05:18:36;;;;;;;;;41.25;33.00;;;;;;;;5081743;27;45370;-72
2022/11/14 05:21:01;;;;;;;;;40.75;35.50;;;;;;;;5083952;27;45344;-71
2022/11/14 05:23:26;;;;;;;;;26.00;25.25;;;;;;;;5081819;27;45315;-71
2022/11/14 05:25:58;;;;;;;;;36.50;33.25;;;;;;;;5082045;27;45439;-71
2022/11/14 05:28:24;;;;;;;;;31.75;28.00;;;;;;;;5080280;27;45313;-71
2022/11/14 05:30:49;;;;;;;;;38.00;32.25;;;;;;;;5093561;27;45461;-72
2022/11/14 05:33:14;;;;;;;;;30.50;23.75;;;;;;;;5081922;27;45422;-72
2022/11/14 05:35:39;;;;;;;;;33.25;28.75;;;;;;;;5089530;27;45444;-74
2022/11/14 05:38:04;;;;;;;;;34.25;29.25;;;;;;;;5081338;27;45518;-73
2022/11/14 05:40:29;;;;;;;;;38.75;31.25;;;;;;;;5085658;27;45441;-73
2022/11/14 05:42:55;;;;;;;;;37.75;31.00;;;;;;;;5089397;27;45602;-70
2022/11/14 05:45:20;;;;;;;;;36.50;29.00;;;;;;;;5087575;27;45831;-71
2022/11/14 05:47:45;;;;;;;;;32.75;29.50;;;;;;;;5088141;27;45365;-71
2022/11/14 05:50:11;;;;;;;;;44.00;35.25;;;;;;;;5083268;27;45447;-71
2022/11/14 05:52:36;;;;;;;;;32.75;29.50;;;;;;;;5081262;27;45189;-71
2022/11/14 05:55:01;;;;;;;;;36.75;31.00;;;;;;;;5083489;27;45471;-73
2022/11/14 05:57:26;;;;;;;;;36.00;31.00;;;;;;;;5082585;27;46278;-71
2022/11/14 05:59:51;;;;;;;;;30.50;26.50;;;;;;;;5087491;27;45426;-72
2022/11/14 06:02:17;;;;;;;;;33.50;28.75;;;;;;;;5082440;27;44779;-71
2022/11/14 06:04:42;;;;;;;;;33.25;28.75;;;;;;;;5082956;27;45323;-72
2022/11/14 06:07:07;;;;;;;;;35.75;28.75;;;;;;;;5080586;27;46260;-74
2022/11/14 06:09:32;;;;;;;;;35.25;31.75;;;;;;;;5083077;27;45287;-73
2022/11/14 06:11:57;;;;;;;;;48.25;35.50;;;;;;;;5080974;27;45389;-75
2022/11/14 06:14:22;;;;;;;;;34.25;32.00;;;;;;;;5081365;27;47577;-74
2022/11/14 06:16:48;;;;;;;;;38.75;32.00;;;;;;;;5081442;27;46297;-74
2022/11/14 06:19:13;;;;;;;;;38.75;34.25;;;;;;;;5080851;27;46309;-74
2022/11/14 06:21:38;;;;;;;;;40.25;33.25;;;;;;;;5087229;27;45321;-73
2022/11/14 06:24:03;;;;;;;;;46.75;35.50;;;;;;;;5080575;27;45259;-73
2022/11/14 06:26:30;;;;;;;;;36.75;32.00;;;;;;;;5081697;27;45449;-72
2022/11/14 06:28:55;;;;;;;;;34.00;31.00;;;;;;;;5079618;27;45940;-73
2022/11/14 06:31:21;;;;;;;;;44.50;32.75;;;;;;;;5086733;27;45484;-73
2022/11/14 06:33:47;;;;;;;;;37.50;33.25;;;;;;;;5082556;27;45228;-73
2022/11/14 06:36:12;;;;;;;;;46.25;35.75;;;;;;;;5086761;27;45424;-73
2022/11/14 06:38:38;;;;;;;;;31.25;26.75;;;;;;;;5080710;27;45173;-73
2022/11/14 06:41:05;;;;;;;;;41.75;34.25;;;;;;;;5089181;27;45254;-73
2022/11/14 06:43:34;;;;;;;;;39.00;36.00;;;;;;;;5095724;27;45468;-73
2022/11/14 06:45:59;;;;;;;;;36.75;34.75;;;;;;;;5086692;27;45450;-73
2022/11/14 06:48:24;;;;;;;;;38.75;32.75;;;;;;;;5089147;27;45406;-74
2022/11/14 06:50:50;;;;;;;;;38.75;28.00;;;;;;;;5086630;27;45449;-72
2022/11/14 06:53:16;;;;;;;;;32.75;26.50;;;;;;;;5094328;27;45214;-73
2022/11/14 06:55:41;;;;;;;;;32.50;31.25;;;;;;;;5083297;27;45355;-72
2022/11/14 06:58:06;;;;;;;;;37.00;31.75;;;;;;;;5084311;27;45209;-72
2022/11/14 07:00:31;;;;;;;;;30.25;28.75;;;;;;;;5086661;27;45359;-72
2022/11/14 07:02:56;;;;;;;;;35.25;31.00;;;;;;;;5084075;27;45974;-72
2022/11/14 07:05:22;;;;;;;;;36.00;30.50;;;;;;;;5085276;27;45473;-72
2022/11/14 07:07:47;;;;;;;;;36.75;28.75;;;;;;;;5084909;27;45174;-72
2022/11/14 07:10:12;;;;;;;;;29.25;25.25;;;;;;;;5081991;27;45335;-71
2022/11/14 07:12:37;;;;;;;;;31.50;29.75;;;;;;;;5079838;27;45593;-72
2022/11/14 07:15:03;;;;;;;;;29.75;26.25;;;;;;;;5081953;27;45625;-75
2022/11/14 07:17:28;;;;;;;;;28.50;27.50;;;;;;;;5079752;27;45208;-77
2022/11/14 07:19:53;;;;;;;;;27.50;23.25;;;;;;;;5082253;27;44850;-76
2022/11/14 07:22:18;;;;;;;;;28.75;25.75;;;;;;;;5079683;27;45217;-75
2022/11/14 07:24:43;;;;;;;;;28.75;26.25;;;;;;;;5079725;27;46630;-75
2022/11/14 07:27:11;;;;;;;;;30.75;27.00;;;;;;;;5085043;27;45525;-75
2022/11/14 07:29:37;;;;;;;;;29.75;23.00;;;;;;;;5079782;27;45334;-75
2022/11/14 07:32:02;;;;;;;;;27.50;22.75;;;;;;;;5084122;27;45337;-74
2022/11/14 07:34:27;;;;;;;;;30.50;26.75;;;;;;;;5092282;27;46947;-74
2022/11/14 07:36:53;;;;;;;;;26.50;20.50;;;;;;;;5083867;27;45348;-74
2022/11/14 07:39:19;;;;;;;;;23.75;22.75;;;;;;;;5079601;27;45807;-74
2022/11/14 07:41:44;;;;;;;;;28.50;27.00;;;;;;;;5087687;27;45255;-73
2022/11/14 07:44:09;;;;;;;;;24.75;21.50;;;;;;;;5080423;27;46098;-74
2022/11/14 07:46:34;;;;;;;;;27.75;23.50;;;;;;;;5079164;27;45176;-75
2022/11/14 07:49:00;;;;;;;;;29.75;23.25;;;;;;;;5077565;27;45419;-75
2022/11/14 07:51:25;;;;;;;;;25.50;23.00;;;;;;;;5080694;27;45201;-75
2022/11/14 07:53:51;;;;;;;;;33.75;28.75;;;;;;;;5086031;27;45282;-74
2022/11/14 07:56:16;;;;;;;;;26.00;23.75;;;;;;;;5079920;27;45256;-74
2022/11/14 07:58:42;;;;;;;;;28.50;25.00;;;;;;;;5084428;27;45251;-74
2022/11/14 08:01:09;;;;;;;;;31.25;22.50;;;;;;;;5078194;27;45888;-74
2022/11/14 08:03:34;;;;;;;;;27.00;21.50;;;;;;;;5078687;27;45177;-74
2022/11/14 08:06:03;;;;;;;;;24.50;19.75;;;;;;;;5081943;27;45411;-74
2022/11/14 08:08:29;;;;;;;;;47.25;38.00;;;;;;;;5077326;27;45366;-74
2022/11/14 08:10:57;;;;;;;;;29.50;26.75;;;;;;;;5081165;27;45532;-74
2022/11/14 08:13:23;;;;;;;;;31.00;27.00;;;;;;;;5078821;27;45281;-74
2022/11/14 08:15:48;;;;;;;;;26.75;24.75;;;;;;;;5083509;27;45141;-74
2022/11/14 08:18:13;;;;;;;;;23.25;18.50;;;;;;;;5079080;27;45259;-74
2022/11/14 08:20:38;;;;;;;;;25.50;24.75;;;;;;;;5081855;27;45571;-75
2022/11/14 08:23:05;;;;;;;;;21.25;19.25;;;;;;;;5078246;28;45282;-75
2022/11/14 08:25:31;;;;;;;;;26.00;23.50;;;;;;;;5084476;27;45341;-75
2022/11/14 08:27:56;;;;;;;;;23.25;18.00;;;;;;;;5078437;27;45536;-75
2022/11/14 08:30:21;;;;;;;;;22.25;21.00;;;;;;;;5079496;27;45184;-75
2022/11/14 08:32:46;;;;;;;;;40.75;30.50;;;;;;;;5077041;27;46533;-75
2022/11/14 08:35:11;;;;;;;;;30.00;24.00;;;;;;;;5080121;27;45311;-74
2022/11/14 08:37:36;;;;;;;;;36.50;29.25;;;;;;;;5078538;28;45694;-75
2022/11/14 08:40:02;;;;;;;;;32.50;24.00;;;;;;;;5084139;27;47303;-74
2022/11/14 08:42:27;;;;;;;;;25.25;22.50;;;;;;;;5081653;27;44997;-74
2022/11/14 08:44:53;;;;;;;;;28.75;23.00;;;;;;;;5081472;27;45350;-75
2022/11/14 08:47:18;;;;;;;;;26.75;19.50;;;;;;;;5081785;27;45261;-75
2022/11/14 08:49:43;;;;;;;;;25.00;20.75;;;;;;;;5082436;27;45445;-75
2022/11/14 08:52:08;;;;;;;;;28.25;23.00;;;;;;;;5090132;27;47502;-75
2022/11/14 08:54:33;;;;;;;;;29.00;26.25;;;;;;;;5090585;27;45297;-74
2022/11/14 08:56:59;;;;;;;;;29.25;28.00;;;;;;;;5092133;27;45438;-73
2022/11/14 08:59:24;;;;;;;;;29.00;24.75;;;;;;;;5085847;27;45331;-73
2022/11/14 09:01:50;;;;;;;;;36.00;30.50;;;;;;;;5084530;27;46102;-73
2022/11/14 09:04:15;;;;;;;;;26.75;25.50;;;;;;;;5087503;27;45697;-73
2022/11/14 09:06:40;;;;;;;;;36.75;34.00;;;;;;;;5084020;27;45307;-73
2022/11/14 09:09:05;;;;;;;;;24.75;19.00;;;;;;;;5081669;27;45485;-73
2022/11/14 09:11:30;;;;;;;;;28.00;24.50;;;;;;;;5086736;27;45153;-73
2022/11/14 09:13:56;;;;;;;;;28.50;26.00;;;;;;;;5081836;27;45142;-73
2022/11/14 09:16:21;;;;;;;;;26.25;25.25;;;;;;;;5086880;27;45343;-73
2022/11/14 09:18:46;;;;;;;;;26.50;23.25;;;;;;;;5081850;27;45292;-72
2022/11/14 09:21:11;;;;;;;;;29.25;26.75;;;;;;;;5082742;27;46289;-72
2022/11/14 09:23:37;;;;;;;;;24.25;22.75;;;;;;;;5081662;27;45302;-72
2022/11/14 09:26:03;;;;;;;;;19.00;19.00;;;;;;;;5091359;27;45213;-72
2022/11/14 09:28:28;;;;;;;;;28.00;21.00;;;;;;;;5082258;27;45213;-72
2022/11/14 09:30:58;;;;;;;;;23.75;19.25;;;;;;;;5086581;27;45306;-72
2022/11/14 09:33:23;;;;;;;;;27.25;24.75;;;;;;;;5081515;27;45368;-74
2022/11/14 09:35:54;;;;;;;;;28.25;24.50;;;;;;;;5087112;27;44875;-73
2022/11/14 09:38:19;;;;;;;;;33.00;25.00;;;;;;;;5081409;27;45302;-73
2022/11/14 09:40:56;;;;;;;;;28.00;22.25;;;;;;;;5087424;27;46070;-73
2022/11/14 09:43:40;;;;;;;;;24.00;22.50;;;;;;;;5081352;27;45328;-73
2022/11/14 09:46:16;;;;;;;;;26.00;22.50;;;;;;;;5083377;27;46302;-73
2022/11/14 09:48:42;;;;;;;;;25.50;20.50;;;;;;;;5080681;27;45268;-72
2022/11/14 09:51:18;;;;;;;;;24.25;19.00;;;;;;;;5083047;27;46040;-72
2022/11/14 09:53:47;;;;;;;;;28.50;27.25;;;;;;;;5079781;27;45328;-72
2022/11/14 09:56:22;;;;;;;;;27.00;25.25;;;;;;;;5092085;27;45517;-73
2022/11/14 09:58:47;;;;;;;;;29.50;24.50;;;;;;;;5081041;27;45206;-73
2022/11/14 10:01:31;;;;;;;;;23.75;21.50;;;;;;;;5083322;27;46105;-72
2022/11/14 10:04:11;;;;;;;;;31.00;28.50;;;;;;;;5081061;27;45892;-73
2022/11/14 10:07:14;;;;;;;;;22.50;21.75;;;;;;;;5083126;27;45524;-73
2022/11/14 10:09:49;;;;;;;;;31.50;23.00;;;;;;;;5048016;28;46312;-73
2022/11/14 10:12:17;;;;;;;;;24.75;22.75;;;;;;;;5056121;28;45349;-73
2022/11/14 10:14:54;;;;;;;;;19.25;17.50;;;;;;;;5072586;27;45690;-73
2022/11/14 10:17:19;;;;;;;;;23.75;22.00;;;;;;;;5084826;27;45456;-73
2022/11/14 10:19:56;;;;;;;;;28.00;22.75;;;;;;;;5083219;27;45152;-73
2022/11/14 10:22:40;;;;;;;;;24.50;24.00;;;;;;;;5080371;27;46385;-73
2022/11/14 10:25:27;;;;;;;;;26.50;25.75;;;;;;;;5089295;27;45161;-72
2022/11/14 10:28:07;;;;;;;;;24.25;21.00;;;;;;;;5088619;27;45318;-72
2022/11/14 10:30:41;;;;;;;;;33.00;25.00;;;;;;;;5091749;27;45817;-72
2022/11/14 10:33:15;;;;;;;;;21.00;20.00;;;;;;;;5085403;27;46972;-73
2022/11/14 10:35:41;;;;;;;;;30.75;22.50;;;;;;;;5087667;27;45470;-72
2022/11/14 10:38:06;;;;;;;;;19.00;19.00;;;;;;;;5080698;27;45406;-74
2022/11/14 10:40:34;;;;;;;;;23.75;21.25;;;;;;;;5089785;27;45544;-72
2022/11/14 10:43:02;;;;;;;;;20.50;19.00;;;;;;;;5080390;27;45393;-72
2022/11/14 10:45:27;;;;;;;;;22.00;17.25;;;;;;;;5084977;27;45435;-72
2022/11/14 10:47:58;;;;;;;;;20.25;18.00;;;;;;;;5081893;27;45568;-73
2022/11/14 10:50:26;;;;;;;;;22.00;21.00;;;;;;;;5087190;27;45735;-73
2022/11/14 10:52:56;;;;;;;;;28.00;21.50;;;;;;;;5080466;27;46082;-72
2022/11/14 10:55:23;;;;;;;;;20.50;18.50;;;;;;;;5083649;27;45495;-74
2022/11/14 10:57:48;;;;;;;;;23.50;20.75;;;;;;;;5087873;27;45466;-73
2022/11/14 11:00:21;;;;;;;;;24.50;21.25;;;;;;;;5082246;27;45240;-72
2022/11/14 11:02:47;;;;;;;;;22.25;19.50;;;;;;;;5079486;27;45476;-72
2022/11/14 11:05:14;;;;;;;;;18.60;18.60;;;;;;;;5087550;27;45442;-74
2022/11/14 11:13:13;;;;;;;;;22.75;19.00;;;;;;;;5096255;27;45875;-74
2022/11/14 11:15:39;;;;;;;;;17.00;17.00;;;;;;;;5082820;27;45462;-74
2022/11/14 11:18:28;;;;;;;;;20.25;17.00;;;;;;;;5083234;27;45820;-78
2022/11/14 11:21:05;;;;;;;;;23.25;22.00;;;;;;;;5081896;27;45615;-78
2022/11/14 11:23:30;;;;;;;;;27.25;25.75;;;;;;;;5079226;27;45032;-77
2022/11/14 11:26:06;;;;;;;;;28.25;21.50;;;;;;;;5086542;27;45241;-76
2022/11/14 11:28:33;;;;;;;;;28.50;24.25;;;;;;;;5080908;27;45428;-78
2022/11/14 11:30:58;;;;;;;;;14.50;14.50;;;;;;;;5086218;27;45249;-79
2022/11/14 11:33:23;;;;;;;;;29.00;25.50;;;;;;;;5080090;27;46525;-77
2022/11/14 11:35:49;;;;;;;;;25.75;21.50;;;;;;;;5086055;27;45420;-76
2022/11/14 11:38:15;;;;;;;;;23.00;18.75;;;;;;;;5088039;27;45704;-77
2022/11/14 11:40:42;;;;;;;;;28.50;26.50;;;;;;;;5090526;27;45285;-76
2022/11/14 11:43:12;;;;;;;;;25.75;24.00;;;;;;;;5079070;27;45502;-77
2022/11/14 11:45:39;;;;;;;;;24.75;22.50;;;;;;;;5085234;27;45237;-77
2022/11/14 11:48:17;;;;;;;;;25.75;23.25;;;;;;;;5079682;27;45374;-77
2022/11/14 11:50:43;;;;;;;;;27.50;25.50;;;;;;;;5079240;27;45502;-77
2022/11/14 11:53:27;;;;;;;;;30.00;23.50;;;;;;;;5078062;27;45456;-76
2022/11/14 11:55:58;;;;;;;;;22.25;20.75;;;;;;;;5080461;27;45424;-77
2022/11/14 11:58:36;;;;;;;;;22.00;20.00;;;;;;;;5097666;27;45450;-76
2022/11/14 12:01:02;;;;;;;;;26.00;21.25;;;;;;;;5087115;27;45253;-76
2022/11/14 12:03:27;;;;;;;;;27.00;23.00;;;;;;;;5089543;27;45524;-77
2022/11/14 12:06:16;;;;;;;;;20.50;20.00;;;;;;;;5080787;27;45476;-76
2022/11/14 12:08:41;;;;;;;;;19.25;17.50;;;;;;;;5074527;27;45448;-76
2022/11/14 12:11:11;;;;;;;;;24.00;20.75;;;;;;;;5082978;27;45319;-76
2022/11/14 12:13:55;;;;;;;;;27.00;21.25;;;;;;;;5094503;27;46680;-76
2022/11/14 12:16:34;;;;;;;;;22.75;21.75;;;;;;;;5086925;27;45267;-77
2022/11/14 12:19:12;;;;;;;;;20.50;19.00;;;;;;;;5077215;27;45284;-76
2022/11/14 12:21:49;;;;;;;;;30.50;22.00;;;;;;;;5079240;27;45501;-77
2022/11/14 12:24:34;;;;;;;;;22.50;21.00;;;;;;;;5078000;27;45505;-76
2022/11/14 12:26:59;;;;;;;;;25.75;23.00;;;;;;;;5078576;27;45282;-77
2022/11/14 12:29:24;;;;;;;;;24.00;23.50;;;;;;;;5084412;27;45633;-77
2022/11/14 12:31:52;;;;;;;;;23.25;21.00;;;;;;;;5083094;27;46082;-76
2022/11/14 12:34:26;;;;;;;;;22.00;20.50;;;;;;;;5083040;27;45403;-76
2022/11/14 12:36:51;;;;;;;;;26.50;22.50;;;;;;;;5082089;27;45379;-77
2022/11/14 12:39:22;;;;;;;;;28.25;26.50;;;;;;;;5080338;27;45414;-80
2022/11/14 12:41:48;;;;;;;;;26.50;23.50;;;;;;;;5085950;27;45252;-77
2022/11/14 12:44:16;;;;;;;;;26.00;22.75;;;;;;;;5087772;27;45653;-77
2022/11/14 12:47:00;;;;;;;;;27.50;25.75;;;;;;;;5078908;27;45335;-77
2022/11/14 12:49:37;;;;;;;;;26.00;23.75;;;;;;;;5080582;27;45280;-79
2022/11/14 12:52:02;;;;;;;;;26.00;23.75;;;;;;;;5086252;27;45320;-77
2022/11/14 12:54:47;;;;;;;;;25.25;22.25;;;;;;;;5078405;27;45452;-77
2022/11/14 12:57:46;;;;;;;;;26.25;24.25;;;;;;;;5083982;27;45312;-76
2022/11/14 13:00:07;;;;;;;;;27.25;26.75;;;;;;;;5077674;27;45280;-76
2022/11/14 13:02:38;;;;;;;;;30.00;27.75;;;;;;;;5077190;27;45673;-76
2022/11/14 13:05:16;;;;;;;;;32.75;27.75;;;;;;;;5082685;27;45507;-79
2022/11/14 13:07:41;;;;;;;;;26.00;25.00;;;;;;;;5077617;27;45310;-74
2022/11/14 13:10:26;;;;;;;;;29.50;27.50;;;;;;;;5090505;27;45430;-75
2022/11/14 13:24:00;;;;;;;;;27.75;25.00;;;;;;;;5077570;27;45281;-75
2022/11/14 13:26:25;;;;;;;;;27.50;23.75;;;;;;;;5083217;27;45407;-75
2022/11/14 13:28:51;;;;;;;;;31.25;27.75;;;;;;;;5081295;27;45466;-75
2022/11/14 13:31:19;;;;;;;;;25.00;24.00;;;;;;;;5086391;27;45452;-76
2022/11/14 13:33:50;;;;;;;;;34.50;27.75;;;;;;;;5083841;27;45422;-76
2022/11/14 13:36:18;;;;;;;;;26.25;24.00;;;;;;;;5080505;27;45341;-76
2022/11/14 13:38:52;;;;;;;;;20.50;20.25;;;;;;;;5080712;27;45317;-76
2022/11/14 13:41:17;;;;;;;;;20.00;17.00;;;;;;;;5080770;27;45441;-74
2022/11/14 13:43:49;;;;;;;;;17.67;16.00;;;;;;;;5080765;27;45566;-74
2022/11/14 13:46:33;;;;;;;;;21.33;17.33;;;;;;;;5082419;27;45394;-73
2022/11/14 13:49:06;;;;;;;;;19.33;17.67;;;;;;;;5086691;27;45437;-77
2022/11/14 13:51:32;;;;;;;;;22.67;18.00;;;;;;;;5091990;27;45356;-72
2022/11/14 13:53:57;;;;;;;;;18.67;17.33;;;;;;;;5095035;27;46435;-73
2022/11/14 13:56:48;;;;;;;;;17.33;16.00;;;;;;;;5085198;27;46325;-73
2022/11/14 13:59:16;;;;;;;;;20.00;19.33;;;;;;;;5093233;27;45318;-73
2022/11/14 14:01:47;;;;;;;;;18.67;18.00;;;;;;;;5086389;27;45497;-73
2022/11/14 14:04:16;;;;;;;;;18.33;16.00;;;;;;;;5080324;27;45299;-72
2022/11/14 14:06:41;;;;;;;;;21.67;21.67;;;;;;;;5085821;27;45455;-74
2022/11/14 14:09:16;;;;;;;;;17.67;16.33;;;;;;;;5095997;27;45477;-73
2022/11/14 14:11:45;;;;;;;;;21.67;21.67;;;;;;;;5090126;27;44793;-74
2022/11/14 14:14:43;;;;;;;;;22.00;18.33;;;;;;;;5080509;27;45307;-74
2022/11/14 14:17:34;;;;;;;;;18.00;16.33;;;;;;;;5061614;27;45387;-75
2022/11/14 14:19:59;;;;;;;;;17.67;14.00;;;;;;;;5063455;27;45551;-74
2022/11/14 14:22:38;;;;;;;;;19.67;18.00;;;;;;;;5078830;27;45373;-74
2022/11/14 14:25:06;;;;;;;;;16.33;16.00;;;;;;;;5091571;27;45391;-73
2022/11/14 14:27:39;;;;;;;;;22.00;17.67;;;;;;;;5080224;27;45237;-73
2022/11/14 14:30:18;;;;;;;;;20.67;16.67;;;;;;;;5081630;27;45554;-73
2022/11/14 14:33:00;;;;;;;;;18.33;17.33;;;;;;;;5080025;27;45441;-73
2022/11/14 14:35:30;;;;;;;;;16.67;15.67;;;;;;;;5080629;27;45473;-73